Albia, IA

12:54 PM CDT on August 04, 2015 (GMT -0500)
Ottumwa Industrial | | Change Station
CLOSE
Current Station
Airport
Location: Ottumwa,
Elevation: 843 ft
Nearby Weather Stations

Elev 843 ft 41.11 °N, 92.45 °W | Updated 1 hour ago

Mostly Cloudy
Mostly Cloudy
72 °F
Feels Like 72 °F
N
9
Wind Variable Wind from WSW

Today
High -- | Low -- °F
--% Chance of Precip.
Yesterday
High -- | Low -- °F
Precip. -- in
6:09 AM 8:24 PM
Waning Gibbous, 76% visible
Pressure 30.05 in
Visibility 10.0 miles
Clouds Overcast 9500 ft
Dew Point 65 °F
Humidity 78%
Rainfall 0.00 in
Snow Depth Not available.
UV 3 out of 12
Pollen 6.70 out of 12
Air Quality Not available.
Flu Activity Not available.
METAR KOTM 041653Z AUTO 24008KT 10SM OVC095 22/18 A3006 RMK AO2 LTG DSNT S SLP175 T02220183

More Conditions Fewer Conditions

Pressure 30.05 in
Visibility 10.0 miles
Clouds Overcast 9500 ft
Dew Point 65 °F
Humidity 78%
Rainfall 0.00 in
Snow Depth Not available.
UV 3 out of 12
Pollen 6.70 out of 12
Air Quality Not available.
Flu Activity Not available.
METAR KOTM 041653Z AUTO 24008KT 10SM OVC095 22/18 A3006 RMK AO2 LTG DSNT S SLP175 T02220183

More Conditions Fewer Conditions

10-Day Weather Forecast

×

Almanac

Astronomy

Aug. 04, 2015 Rise Set
Actual Time
Civil Twilight
Nautical Twilight
Astronomical Twilight
Moon
Length of Visible Light
Length of Day
Tomorrow will be .
, % of the Moon is Illuminated

Today's Extremes

State Highs State Lows

Community

WunderPhotos

Upload Photos

1,843,927 photos uploaded!

WunderBlogs® & News

Nearby

Air Quality

  Air Quality AQ Index Pollutant
Not available.

Snow Depth

Station Depth Elevation

Earthquake Activity

City Distance Mag. Time & Date
Minimum magnitude displayed is 2.5.

Coastal Water Temperatures

Place Temperature

Stations

Nearby Weather Stations

Station Location Temp. Windchill Dew Point Humidity Wind Precip. Elev Updated Type